Time;durP1;ratioP1;P1;durP2;ratioP2;P2;SDS_P1;SDS_P2;PMS_P1;PMS_P2;Temp;Humidity;BMP_temperature;BMP_pressure;BME280_temperature;BME280_humidity;BME280_pressure;Samples;Min_cycle;Max_cycle;Signal;HPM_P1;HPM_P2
2022/06/28 00:01:11;;;;;;;4.10;3.13;;;;;;;27.43;44.01;101212.94;5029452;28;20414;-58
2022/06/28 00:03:38;;;;;;;4.10;3.40;;;;;;;27.44;44.13;101213.75;5028476;28;21024;-57
2022/06/28 00:06:05;;;;;;;3.58;3.30;;;;;;;27.42;44.31;101214.06;5027815;28;20418;-56
2022/06/28 00:08:32;;;;;;;4.77;3.30;;;;;;;27.40;44.09;101216.19;5028024;28;20417;-57
2022/06/28 00:10:59;;;;;;;5.88;3.45;;;;;;;27.39;44.06;101216.50;5028971;28;20414;-58
2022/06/28 00:13:28;;;;;;;5.05;3.70;;;;;;;27.38;44.02;101214.84;5026127;28;20426;-56
2022/06/28 00:16:06;;;;;;;3.78;3.40;;;;;;;27.35;44.25;101218.09;5028729;28;20410;-57
2022/06/28 00:18:34;;;;;;;4.22;3.28;;;;;;;27.26;44.41;101218.66;5027569;28;20424;-58
2022/06/28 00:21:02;;;;;;;4.50;3.17;;;;;;;27.23;44.17;101215.63;5028391;28;20418;-57
2022/06/28 00:23:29;;;;;;;3.97;3.28;;;;;;;27.19;44.32;101220.78;5027438;28;20425;-57
2022/06/28 00:25:57;;;;;;;5.40;3.70;;;;;;;27.15;44.65;101227.84;5025203;28;20417;-57
2022/06/28 00:28:24;;;;;;;3.75;3.10;;;;;;;27.11;44.44;101223.22;5026452;28;20436;-57
2022/06/28 00:30:52;;;;;;;4.10;3.50;;;;;;;27.07;44.51;101223.75;5027656;28;20544;-58
2022/06/28 00:33:19;;;;;;;4.40;3.30;;;;;;;27.07;44.88;101218.31;5026809;28;20429;-57
2022/06/28 00:35:47;;;;;;;3.75;3.20;;;;;;;27.09;44.59;101216.13;5027208;28;20420;-57
2022/06/28 00:38:14;;;;;;;3.63;3.20;;;;;;;27.11;44.43;101212.34;5028222;28;20421;-59
2022/06/28 00:40:47;;;;;;;3.20;3.00;;;;;;;27.09;44.21;101215.31;5028376;28;20920;-57
2022/06/28 00:43:15;;;;;;;5.43;3.22;;;;;;;27.04;44.34;101213.38;5028569;28;20413;-58
2022/06/28 00:45:43;;;;;;;4.10;3.22;;;;;;;27.00;44.39;101206.06;5028800;28;20406;-56
2022/06/28 00:48:14;;;;;;;5.00;3.40;;;;;;;26.97;44.80;101199.22;5028668;28;20839;-57
2022/06/28 00:51:02;;;;;;;3.50;3.20;;;;;;;26.97;44.65;101192.97;5090507;27;20414;-58
2022/06/28 00:53:29;;;;;;;5.70;3.50;;;;;;;26.97;44.62;101191.06;5085577;28;20421;-58
2022/06/28 00:55:56;;;;;;;3.67;3.33;;;;;;;26.96;44.82;101197.59;5085530;28;20501;-57
2022/06/28 00:58:24;;;;;;;4.18;3.33;;;;;;;26.97;44.94;101192.97;5085773;28;20436;-57
2022/06/28 01:00:51;;;;;;;3.53;3.22;;;;;;;26.97;44.47;101193.78;5085342;28;20501;-58
2022/06/28 01:03:20;;;;;;;5.17;3.10;;;;;;;26.96;44.89;101188.63;5091020;28;20415;-57
2022/06/28 01:05:48;;;;;;;6.85;3.50;;;;;;;26.94;44.60;101193.50;5077049;28;20939;-58
2022/06/28 01:08:16;;;;;;;4.68;3.33;;;;;;;26.85;44.90;101204.91;5080453;28;20408;-57
2022/06/28 01:10:43;;;;;;;3.75;3.42;;;;;;;26.69;44.95;101209.47;5080779;28;20801;-57
2022/06/28 01:13:11;;;;;;;4.15;3.33;;;;;;;26.62;45.11;101210.81;5086118;28;20414;-59
2022/06/28 01:15:39;;;;;;;4.05;3.35;;;;;;;26.62;45.05;101203.47;5082017;28;20456;-58
2022/06/28 01:18:08;;;;;;;4.00;3.55;;;;;;;26.61;45.32;101201.03;5083295;28;20426;-58
2022/06/28 01:20:36;;;;;;;3.92;3.50;;;;;;;26.53;45.55;101205.03;5084391;28;20493;-57
2022/06/28 01:23:04;;;;;;;6.30;3.38;;;;;;;26.18;46.47;101216.53;5086329;28;20414;-58
2022/06/28 01:25:31;;;;;;;3.60;3.30;;;;;;;26.23;46.26;101211.94;5080104;28;20414;-56
2022/06/28 01:27:58;;;;;;;5.68;3.88;;;;;;;26.29;46.14;101215.53;5078720;28;20417;-58
2022/06/28 01:30:28;;;;;;;4.07;3.20;;;;;;;26.31;46.16;101208.75;5080797;28;20433;-58
2022/06/28 01:32:55;;;;;;;4.05;3.65;;;;;;;26.29;46.07;101216.34;5077257;28;20403;-58
2022/06/28 01:35:22;;;;;;;3.88;3.50;;;;;;;26.33;45.94;101222.06;5080999;28;20476;-57
2022/06/28 01:37:49;;;;;;;4.13;3.50;;;;;;;26.35;46.07;101216.38;5076576;28;20414;-57
2022/06/28 01:40:18;;;;;;;4.28;3.55;;;;;;;26.33;46.53;101228.31;5080567;28;20457;-58
2022/06/28 01:42:45;;;;;;;6.47;3.50;;;;;;;26.34;46.28;101220.97;5076408;28;20406;-57
2022/06/28 01:45:12;;;;;;;4.95;3.63;;;;;;;26.37;46.13;101211.50;5080589;28;20410;-58
2022/06/28 01:47:44;;;;;;;3.60;3.30;;;;;;;26.36;46.33;101221.53;5073680;28;20508;-57
2022/06/28 01:50:11;;;;;;;3.73;3.30;;;;;;;26.37;46.36;101211.50;5065104;28;20432;-56
2022/06/28 01:52:40;;;;;;;3.80;3.30;;;;;;;26.38;45.95;101221.25;5066592;28;20420;-58
2022/06/28 01:55:08;;;;;;;5.07;3.70;;;;;;;26.38;46.28;101232.13;5085647;28;20410;-57
2022/06/28 01:57:36;;;;;;;5.63;3.53;;;;;;;26.35;46.12;101227.25;5084829;28;20410;-57
2022/06/28 02:00:04;;;;;;;4.63;3.35;;;;;;;26.08;46.52;101222.72;5072176;28;20424;-58
2022/06/28 02:02:31;;;;;;;3.75;3.33;;;;;;;26.14;46.50;101213.53;5071829;28;20415;-58
2022/06/28 02:04:58;;;;;;;6.20;4.03;;;;;;;26.17;46.43;101206.75;5057487;28;20411;-57
2022/06/28 02:07:25;;;;;;;4.07;3.20;;;;;;;26.17;46.44;101204.84;5060743;28;20420;-57
2022/06/28 02:09:52;;;;;;;4.28;3.35;;;;;;;26.17;46.34;101204.84;5051341;28;20818;-57
2022/06/28 02:12:19;;;;;;;6.00;3.73;;;;;;;26.16;46.24;101210.53;5051645;28;20982;-57
2022/06/28 02:14:47;;;;;;;5.35;3.50;;;;;;;26.14;46.62;101205.38;5065722;28;20475;-58
2022/06/28 02:17:14;;;;;;;4.88;3.35;;;;;;;26.13;46.40;101210.00;5059693;28;20931;-57
2022/06/28 02:19:41;;;;;;;6.13;3.50;;;;;;;26.16;46.59;101216.78;5071162;28;20499;-57
2022/06/28 02:22:08;;;;;;;6.80;3.60;;;;;;;26.17;46.46;101220.34;5072092;28;20411;-58
2022/06/28 02:24:35;;;;;;;5.32;3.70;;;;;;;26.18;46.44;101211.09;5071793;28;20517;-57
2022/06/28 02:27:13;;;;;;;5.45;3.75;;;;;;;26.16;46.54;101210.53;5114204;27;20406;-58
2022/06/28 02:29:40;;;;;;;4.60;3.97;;;;;;;26.15;46.38;101208.94;5086520;28;20413;-57
2022/06/28 02:32:08;;;;;;;4.13;3.72;;;;;;;26.12;46.46;101208.34;5086173;28;20416;-58
2022/06/28 02:42:50;;;;;;;5.22;4.13;;;;;;;26.00;46.54;101215.91;5067490;28;20415;-57
2022/06/28 02:45:17;;;;;;;6.72;4.70;;;;;;;25.95;46.94;101218.56;5066740;28;20436;-56
2022/06/28 02:47:44;;;;;;;6.07;4.50;;;;;;;25.91;46.78;101217.41;5075619;28;20421;-58
2022/06/28 02:50:11;;;;;;;7.07;4.95;;;;;;;25.87;47.10;101221.72;5075410;28;20406;-57
2022/06/28 02:52:38;;;;;;;4.82;4.43;;;;;;;25.84;47.21;101225.78;5081352;28;20436;-58
2022/06/28 02:55:06;;;;;;;6.05;4.63;;;;;;;25.81;47.24;101225.50;5067176;28;20462;-57
2022/06/28 02:57:34;;;;;;;4.97;4.43;;;;;;;25.80;47.18;101230.09;5066566;28;20459;-58
2022/06/28 03:00:05;;;;;;;5.07;4.57;;;;;;;25.78;46.93;101226.00;5072437;28;20513;-57
2022/06/28 03:02:32;;;;;;;5.38;4.68;;;;;;;25.78;46.97;101231.44;5065974;28;20404;-57
2022/06/28 03:04:59;;;;;;;5.18;4.43;;;;;;;25.79;47.08;101230.38;5084198;28;20482;-56
2022/06/28 03:07:26;;;;;;;5.95;4.50;;;;;;;25.81;47.24;101226.31;5070284;28;20503;-57
2022/06/28 03:09:52;;;;;;;5.18;4.68;;;;;;;25.85;47.32;101232.03;5069242;28;20410;-56
2022/06/28 03:12:19;;;;;;;5.68;4.40;;;;;;;25.87;47.28;101235.31;5065470;28;20878;-57
2022/06/28 03:14:46;;;;;;;6.72;4.90;;;;;;;25.89;47.17;101239.41;5078825;28;20414;-58
2022/06/28 03:17:15;;;;;;;5.07;4.45;;;;;;;25.93;47.27;101243.28;5085275;28;20491;-57
2022/06/28 03:19:42;;;;;;;5.82;4.43;;;;;;;25.99;47.21;101248.75;5066925;28;20412;-57
2022/06/28 03:22:08;;;;;;;4.37;3.87;;;;;;;26.01;46.77;101255.53;5079236;28;20416;-57
2022/06/28 03:24:35;;;;;;;6.32;3.95;;;;;;;25.93;46.69;101254.13;5075200;28;20429;-57
2022/06/28 03:27:02;;;;;;;5.28;3.75;;;;;;;25.95;46.40;101251.16;5075446;28;20797;-57
2022/06/28 03:29:29;;;;;;;6.57;3.78;;;;;;;26.01;46.34;101254.75;5083167;28;20410;-58
2022/06/28 03:31:56;;;;;;;4.40;3.60;;;;;;;26.06;46.16;101252.88;5082287;28;20412;-58
2022/06/28 03:34:24;;;;;;;5.30;3.90;;;;;;;26.14;46.10;101251.56;5080147;28;20484;-57
2022/06/28 03:36:51;;;;;;;5.20;3.53;;;;;;;26.24;45.82;101254.34;5081398;28;20403;-57
2022/06/28 03:39:18;;;;;;;8.93;5.00;;;;;;;26.33;45.79;101263.66;5071666;28;20788;-57
2022/06/28 03:41:45;;;;;;;10.93;5.00;;;;;;;26.42;45.36;101260.44;5071761;28;20414;-57
2022/06/28 03:44:12;;;;;;;5.68;3.70;;;;;;;26.47;45.58;101266.72;5057756;28;20414;-57
2022/06/28 03:46:39;;;;;;;9.10;3.90;;;;;;;26.55;45.26;101276.28;5071923;28;20422;-57
2022/06/28 03:49:06;;;;;;;6.50;3.97;;;;;;;26.58;45.29;101270.31;5071557;28;20411;-57
2022/06/28 03:51:34;;;;;;;6.95;3.95;;;;;;;26.68;45.26;101278.53;5071554;28;20791;-57
2022/06/28 03:54:01;;;;;;;6.17;3.77;;;;;;;26.74;45.39;101270.41;5071475;28;20486;-57
2022/06/28 03:56:28;;;;;;;4.45;3.67;;;;;;;26.79;45.30;101273.97;5071248;28;20415;-57
2022/06/28 03:58:55;;;;;;;4.90;3.60;;;;;;;26.87;45.25;101272.66;5071548;28;20411;-57
2022/06/28 04:01:22;;;;;;;5.43;3.60;;;;;;;26.94;44.77;101286.00;5071183;28;20982;-57
2022/06/28 04:03:49;;;;;;;7.78;3.55;;;;;;;27.00;44.71;101280.31;5071696;28;20419;-57
2022/06/28 04:06:16;;;;;;;6.60;3.80;;;;;;;27.03;45.17;101277.06;5071422;28;20449;-58
2022/06/28 04:08:44;;;;;;;4.80;3.70;;;;;;;27.12;44.83;101285.53;5071283;28;20411;-58
2022/06/28 04:11:17;;;;;;;6.60;4.00;;;;;;;27.23;44.81;101286.41;5071077;28;20411;-57
2022/06/28 04:13:46;;;;;;;9.48;4.88;;;;;;;27.32;44.59;101287.53;5071169;28;20418;-58
2022/06/28 04:16:13;;;;;;;5.55;4.03;;;;;;;27.41;44.41;101279.66;5071457;28;20403;-57
2022/06/28 04:18:41;;;;;;;5.63;4.40;;;;;;;27.47;44.02;101270.41;5071054;28;20411;-59
2022/06/28 04:21:09;;;;;;;7.75;4.15;;;;;;;27.61;44.26;101276.16;5071001;28;20410;-57
2022/06/28 04:23:36;;;;;;;4.20;3.80;;;;;;;27.70;43.76;101274.53;5071052;28;20433;-57
2022/06/28 04:26:05;;;;;;;5.15;3.95;;;;;;;27.77;43.80;101268.81;5071116;28;20430;-58
2022/06/28 04:28:32;;;;;;;6.47;4.18;;;;;;;27.87;43.54;101276.16;5070699;28;20796;-57
2022/06/28 04:30:59;;;;;;;6.03;4.65;;;;;;;28.01;43.62;101269.91;5070768;28;20415;-58
2022/06/28 04:33:26;;;;;;;9.95;5.70;;;;;;;28.16;43.47;101258.19;5070809;28;20415;-59
2022/06/28 04:35:53;;;;;;;7.22;4.82;;;;;;;28.28;43.11;101266.06;5070135;28;20411;-57
2022/06/28 04:38:20;;;;;;;5.22;4.65;;;;;;;28.37;42.81;101269.84;5057254;28;20421;-58
2022/06/28 04:40:47;;;;;;;5.68;4.47;;;;;;;28.47;42.63;101279.09;5053167;28;20458;-57
2022/06/28 04:43:16;;;;;;;9.02;5.38;;;;;;;28.52;42.49;101285.38;5065024;28;20954;-57
2022/06/28 04:45:43;;;;;;;6.13;4.90;;;;;;;28.62;42.73;101295.47;5070410;28;20418;-58
2022/06/28 04:48:10;;;;;;;5.30;4.80;;;;;;;28.66;42.16;101285.63;5069960;28;20413;-57
2022/06/28 04:50:37;;;;;;;6.03;5.10;;;;;;;28.75;42.47;101288.59;5069782;28;20908;-58
2022/06/28 04:53:04;;;;;;;5.22;4.72;;;;;;;28.88;42.29;101290.75;5070375;28;20417;-58
2022/06/28 04:55:30;;;;;;;7.00;4.55;;;;;;;29.02;42.17;101301.03;5070015;28;20423;-56
2022/06/28 04:57:57;;;;;;;6.55;5.03;;;;;;;29.11;42.13;101297.44;5064195;28;20949;-58
2022/06/28 05:00:27;;;;;;;9.02;5.32;;;;;;;29.21;41.83;101293.88;5062974;28;20407;-58
2022/06/28 05:02:54;;;;;;;5.88;4.95;;;;;;;29.37;41.42;101305.53;5070086;28;20480;-58
2022/06/28 05:05:21;;;;;;;8.00;5.05;;;;;;;29.49;41.20;101299.72;5069365;28;20411;-57
2022/06/28 05:07:48;;;;;;;6.10;4.90;;;;;;;29.64;41.07;101296.06;5069703;28;20963;-58
2022/06/28 05:10:15;;;;;;;7.93;4.93;;;;;;;29.77;40.43;101295.44;5070333;28;20421;-59
2022/06/28 05:12:42;;;;;;;7.40;4.90;;;;;;;29.84;40.29;101287.75;5070023;28;20494;-58
2022/06/28 05:15:10;;;;;;;7.00;5.60;;;;;;;29.93;40.33;101282.47;5070444;28;20418;-58
2022/06/28 05:17:39;;;;;;;6.05;4.93;;;;;;;30.02;40.40;101285.41;5070311;28;20510;-57
2022/06/28 05:20:08;;;;;;;5.40;4.90;;;;;;;29.93;40.40;101286.03;5056514;28;20421;-58
2022/06/28 05:22:35;;;;;;;7.00;5.30;;;;;;;29.85;40.17;101277.63;5069811;28;20415;-58
2022/06/28 05:25:03;;;;;;;7.50;5.10;;;;;;;29.94;40.62;101284.09;5069661;28;20418;-58
2022/06/28 05:27:30;;;;;;;6.72;5.00;;;;;;;30.18;40.35;101275.13;5058338;28;20443;-57
2022/06/28 05:29:57;;;;;;;7.07;5.22;;;;;;;30.30;40.07;101278.28;5067292;28;20425;-58
2022/06/28 05:32:24;;;;;;;6.38;5.32;;;;;;;30.36;39.81;101268.13;5070047;28;20411;-57
2022/06/28 05:34:52;;;;;;;7.95;5.25;;;;;;;30.29;39.79;101273.94;5069340;28;20410;-57
2022/06/28 05:37:19;;;;;;;6.10;5.40;;;;;;;30.40;39.87;101266.47;5069494;28;20415;-57
2022/06/28 05:39:46;;;;;;;6.07;5.47;;;;;;;30.57;39.61;101266.00;5069351;28;20774;-58
2022/06/28 05:42:14;;;;;;;6.43;5.80;;;;;;;30.58;39.89;101268.44;5069396;28;20784;-58
2022/06/28 05:44:41;;;;;;;6.95;5.78;;;;;;;30.59;40.60;101271.97;5069918;28;20432;-57
2022/06/28 05:47:08;;;;;;;7.40;5.60;;;;;;;30.55;40.56;101274.50;5069450;28;20426;-58
2022/06/28 05:49:35;;;;;;;6.60;5.90;;;;;;;30.61;40.52;101278.81;5069142;28;20538;-58
2022/06/28 05:52:03;;;;;;;7.85;5.72;;;;;;;30.53;40.53;101278.63;5069671;28;20414;-58
2022/06/28 05:54:30;;;;;;;6.57;5.97;;;;;;;30.59;41.07;101281.00;5069553;28;20411;-58
2022/06/28 05:56:57;;;;;;;7.00;5.70;;;;;;;30.75;40.47;101280.81;5069413;28;20422;-57
2022/06/28 05:59:25;;;;;;;8.30;5.90;;;;;;;31.03;40.28;101271.72;5069403;28;20483;-57
2022/06/28 06:01:53;;;;;;;7.78;6.03;;;;;;;31.27;39.68;101281.00;5069200;28;20808;-58
2022/06/28 06:04:20;;;;;;;8.75;6.20;;;;;;;31.53;38.89;101271.31;5069582;28;20465;-58
2022/06/28 06:06:46;;;;;;;7.30;6.45;;;;;;;31.76;38.97;101271.47;5055152;28;20799;-59
2022/06/28 06:09:15;;;;;;;8.35;6.18;;;;;;;31.96;38.12;101268.41;5069164;28;20807;-58
2022/06/28 06:11:42;;;;;;;8.23;6.95;;;;;;;32.25;37.95;101263.78;5069219;28;20446;-58
2022/06/28 06:14:09;;;;;;;6.88;6.18;;;;;;;32.58;37.22;101265.34;5069102;28;20977;-58
2022/06/28 06:16:36;;;;;;;11.13;7.30;;;;;;;32.95;36.68;101269.00;5068883;28;20403;-58
2022/06/28 06:19:03;;;;;;;6.88;6.22;;;;;;;33.28;35.95;101268.00;5069390;28;20792;-58
2022/06/28 06:21:30;;;;;;;7.53;6.50;;;;;;;33.77;35.29;101271.00;5069121;28;20414;-58
2022/06/28 06:23:57;;;;;;;6.85;6.05;;;;;;;34.22;34.54;101268.19;5069275;28;20422;-55
2022/06/28 06:26:25;;;;;;;6.17;5.57;;;;;;;34.70;33.41;101275.66;5069156;28;20437;-58
2022/06/28 06:28:52;;;;;;;6.03;5.43;;;;;;;35.05;32.99;101270.19;5054955;28;20468;-59
2022/06/28 06:31:19;;;;;;;9.60;6.88;;;;;;;35.53;32.01;101273.94;5069199;28;20425;-57
2022/06/28 06:33:46;;;;;;;7.38;6.60;;;;;;;35.98;31.42;101281.84;5069099;28;20411;-56
2022/06/28 06:36:13;;;;;;;6.82;6.20;;;;;;;36.23;30.81;101277.41;5069230;28;20495;-56
2022/06/28 06:38:40;;;;;;;7.60;6.80;;;;;;;36.53;30.88;101280.97;5068637;28;20729;-56
2022/06/28 06:41:07;;;;;;;7.13;6.32;;;;;;;36.69;30.51;101281.25;5069169;28;20501;-55
2022/06/28 06:43:35;;;;;;;7.43;6.32;;;;;;;36.94;30.29;101278.66;5068963;28;20406;-55
2022/06/28 06:46:02;;;;;;;7.10;6.40;;;;;;;37.22;29.46;101267.91;5069133;28;20481;-56
2022/06/28 06:48:29;;;;;;;7.00;6.32;;;;;;;37.20;29.87;101274.91;5068622;28;21004;-56
2022/06/28 06:50:56;;;;;;;9.43;6.43;;;;;;;37.29;29.59;101268.16;5068800;28;20415;-55
2022/06/28 06:53:23;;;;;;;6.85;6.15;;;;;;;37.42;28.81;101269.00;5068774;28;20418;-55
2022/06/28 06:55:50;;;;;;;8.65;6.30;;;;;;;37.16;29.31;101262.91;5061257;28;20920;-55
2022/06/28 06:58:17;;;;;;;7.07;6.33;;;;;;;36.88;30.00;101266.16;5054660;28;20415;-55
2022/06/28 07:00:45;;;;;;;6.90;6.30;;;;;;;36.55;30.53;101261.31;5054428;28;20907;-55
2022/06/28 07:03:12;;;;;;;7.50;6.40;;;;;;;36.26;30.28;101271.19;5051351;28;20794;-55
2022/06/28 07:05:39;;;;;;;6.72;6.22;;;;;;;35.74;31.31;101265.81;5062409;28;20412;-57
2022/06/28 07:08:07;;;;;;;7.28;6.47;;;;;;;35.69;31.19;101266.78;5065414;28;20434;-52
2022/06/28 07:10:34;;;;;;;6.55;5.95;;;;;;;35.73;31.45;101269.75;5063390;28;20430;-55
2022/06/28 07:13:01;;;;;;;7.25;6.18;;;;;;;35.64;31.10;101266.13;5058759;28;20418;-57
2022/06/28 07:15:28;;;;;;;8.37;6.53;;;;;;;35.57;31.89;101269.41;5071406;28;20931;-58
2022/06/28 07:17:56;;;;;;;6.53;5.93;;;;;;;35.57;31.79;101267.44;5072237;28;20774;-57
2022/06/28 07:20:23;;;;;;;7.88;6.55;;;;;;;35.56;31.55;101262.25;5068268;28;20415;-55
2022/06/28 07:22:50;;;;;;;7.05;6.38;;;;;;;35.51;31.39;101266.00;5072396;28;20411;-55
2022/06/28 07:25:17;;;;;;;9.82;6.63;;;;;;;35.27;31.88;101261.00;5069130;28;20415;-55
2022/06/28 07:27:44;;;;;;;7.50;6.70;;;;;;;35.19;31.76;101257.09;5068193;28;20437;-58
2022/06/28 07:30:12;;;;;;;11.10;8.00;;;;;;;34.93;32.63;101256.25;5071256;28;20796;-58
2022/06/28 07:32:39;;;;;;;7.53;6.57;;;;;;;34.79;32.95;101262.72;5071329;28;20788;-56
2022/06/28 07:35:09;;;;;;;7.35;6.63;;;;;;;34.36;33.35;101262.53;5072169;28;20414;-56
2022/06/28 07:37:37;;;;;;;7.10;6.32;;;;;;;34.31;33.55;101265.47;5071321;28;20411;-56
2022/06/28 07:40:05;;;;;;;7.32;6.15;;;;;;;34.44;33.08;101264.53;5070884;28;20419;-56
2022/06/28 07:42:32;;;;;;;8.00;7.20;;;;;;;34.48;33.26;101265.50;5071552;28;20411;-56
2022/06/28 07:44:59;;;;;;;9.15;7.30;;;;;;;34.13;33.87;101268.09;5070374;28;20509;-56
2022/06/28 07:47:26;;;;;;;8.60;6.78;;;;;;;33.82;34.58;101268.13;5070854;28;20431;-57
2022/06/28 07:52:39;;;;;;;7.67;6.90;;;;;;;33.92;34.62;101273.31;5071230;28;20403;-57
2022/06/28 07:55:08;;;;;;;6.93;6.32;;;;;;;33.82;34.71;101270.88;5071709;28;20418;-56
2022/06/28 07:57:36;;;;;;;9.43;6.55;;;;;;;33.93;34.48;101263.97;5071494;28;20415;-56
2022/06/28 08:00:04;;;;;;;7.28;6.57;;;;;;;33.94;34.95;101262.00;5071453;28;20443;-56
2022/06/28 08:02:31;;;;;;;7.22;6.53;;;;;;;33.68;34.88;101260.72;5071105;28;20893;-58
2022/06/28 08:04:58;;;;;;;6.90;6.20;;;;;;;33.63;35.22;101268.28;5071109;28;20414;-56
2022/06/28 08:07:25;;;;;;;7.03;6.33;;;;;;;33.40;34.92;101271.00;5071555;28;20510;-56
2022/06/28 08:09:54;;;;;;;7.00;6.40;;;;;;;33.25;35.06;101274.13;5071283;28;20415;-56
2022/06/28 08:12:20;;;;;;;8.02;7.22;;;;;;;33.14;35.62;101273.53;5071457;28;20410;-57
2022/06/28 08:14:47;;;;;;;9.07;7.00;;;;;;;33.16;35.43;101274.03;5070724;28;20422;-56
2022/06/28 08:17:14;;;;;;;8.45;6.45;;;;;;;33.12;35.44;101279.34;5070968;28;20411;-56
2022/06/28 08:19:42;;;;;;;6.85;6.15;;;;;;;32.88;36.02;101279.56;5071013;28;20407;-55
2022/06/28 08:22:09;;;;;;;10.03;6.30;;;;;;;32.79;36.50;101281.44;5070934;28;20422;-55
2022/06/28 08:24:36;;;;;;;6.95;6.30;;;;;;;32.76;36.19;101279.28;5071136;28;20411;-56
2022/06/28 08:27:05;;;;;;;8.70;6.17;;;;;;;32.45;36.28;101284.53;5071254;28;20438;-55
2022/06/28 08:29:34;;;;;;;6.83;6.13;;;;;;;32.43;36.19;101286.78;5071408;28;20411;-55
2022/06/28 08:32:01;;;;;;;7.00;6.20;;;;;;;32.45;36.08;101287.28;5070982;28;20480;-55
2022/06/28 08:34:28;;;;;;;6.80;6.10;;;;;;;32.32;35.94;101289.72;5070972;28;20522;-56
2022/06/28 08:36:55;;;;;;;7.90;6.05;;;;;;;32.27;36.58;101283.50;5070465;28;20418;-55
2022/06/28 08:39:22;;;;;;;6.57;5.47;;;;;;;32.28;36.02;101290.63;5070951;28;20407;-55
2022/06/28 08:41:49;;;;;;;5.90;5.13;;;;;;;32.25;35.30;101291.22;5070550;28;20418;-57
2022/06/28 08:44:18;;;;;;;5.47;5.00;;;;;;;32.33;34.23;101280.38;5070933;28;20411;-56
2022/06/28 08:46:46;;;;;;;7.03;5.20;;;;;;;32.45;35.03;101277.13;5070444;28;20797;-56
2022/06/28 08:49:16;;;;;;;7.20;5.38;;;;;;;32.44;33.85;101283.72;5070319;28;20419;-55
2022/06/28 08:51:44;;;;;;;6.10;5.50;;;;;;;32.34;33.79;101286.66;5070761;28;20410;-55
2022/06/28 08:54:13;;;;;;;5.82;5.20;;;;;;;32.37;34.24;101286.06;5070066;28;20418;-55
2022/06/28 08:56:41;;;;;;;6.10;5.50;;;;;;;32.27;34.49;101281.59;5057522;28;20411;-57
2022/06/28 08:59:08;;;;;;;5.80;5.20;;;;;;;32.31;34.42;101274.38;5070503;28;20415;-56
2022/06/28 09:01:36;;;;;;;6.82;5.75;;;;;;;32.36;34.82;101278.97;5056304;28;20415;-56
2022/06/28 09:04:04;;;;;;;5.82;5.28;;;;;;;32.49;33.68;101269.09;5070502;28;20414;-56
2022/06/28 09:06:31;;;;;;;6.37;5.87;;;;;;;32.28;34.59;101265.94;5069778;28;20419;-56
2022/06/28 09:08:58;;;;;;;6.60;5.90;;;;;;;32.17;34.28;101268.06;5070028;28;20429;-55
2022/06/28 09:11:25;;;;;;;5.75;5.25;;;;;;;32.30;33.86;101258.22;5069702;28;20414;-55
2022/06/28 09:13:52;;;;;;;7.90;5.55;;;;;;;32.41;34.03;101262.38;5069966;28;20766;-56
2022/06/28 09:16:20;;;;;;;6.40;5.00;;;;;;;32.49;32.96;101258.13;5069958;28;20415;-56
2022/06/28 09:18:49;;;;;;;5.38;4.88;;;;;;;32.45;32.24;101257.09;5070220;28;20410;-56
2022/06/28 09:21:18;;;;;;;6.75;5.18;;;;;;;32.55;33.07;101240.44;5069790;28;20419;-56
2022/06/28 09:23:46;;;;;;;6.50;5.20;;;;;;;32.57;33.30;101235.44;5067874;28;20936;-56
2022/06/28 09:26:15;;;;;;;8.07;5.50;;;;;;;32.56;33.07;101233.84;5069836;28;20414;-56
2022/06/28 09:28:44;;;;;;;6.68;5.50;;;;;;;32.35;33.39;101236.97;5067703;28;20434;-58
2022/06/28 09:31:19;;;;;;;7.22;5.80;;;;;;;32.25;34.31;101234.44;5069525;28;20422;-57
2022/06/28 09:33:49;;;;;;;6.60;5.47;;;;;;;32.34;33.61;101227.13;5068130;28;20412;-55
2022/06/28 09:36:18;;;;;;;5.60;5.20;;;;;;;32.29;33.75;101215.44;5069277;28;20430;-56
2022/06/28 09:38:45;;;;;;;5.80;5.30;;;;;;;32.47;33.26;101211.78;5067435;28;20428;-55
2022/06/28 09:41:23;;;;;;;6.40;5.80;;;;;;;32.51;33.53;101211.97;5069519;28;20473;-55
2022/06/28 09:44:00;;;;;;;6.00;5.50;;;;;;;32.60;33.55;101210.16;5069382;28;20813;-54
2022/06/28 09:46:29;;;;;;;6.55;5.93;;;;;;;32.72;33.85;101204.16;5069251;28;20486;-55
2022/06/28 09:48:59;;;;;;;6.23;5.67;;;;;;;32.66;33.14;101200.69;5069003;28;20431;-56
2022/06/28 09:51:27;;;;;;;5.88;5.30;;;;;;;32.66;32.71;101202.63;5069318;28;20419;-56
2022/06/28 09:53:56;;;;;;;5.88;5.18;;;;;;;32.78;32.25;101197.41;5069543;28;20502;-56
2022/06/28 09:56:25;;;;;;;6.72;6.13;;;;;;;32.92;32.22;101200.94;5069388;28;20407;-58
2022/06/28 09:58:53;;;;;;;5.95;5.35;;;;;;;32.92;32.08;101192.69;5069270;28;20484;-55
2022/06/28 10:01:21;;;;;;;5.78;4.90;;;;;;;32.93;31.00;101197.06;5069304;28;20500;-55
2022/06/28 10:03:49;;;;;;;4.75;4.28;;;;;;;32.80;29.99;101189.69;5069584;28;20426;-57
2022/06/28 10:06:21;;;;;;;4.95;4.43;;;;;;;32.58;30.29;101193.16;5068756;28;20453;-56
2022/06/28 10:08:49;;;;;;;5.95;4.85;;;;;;;32.68;31.10;101187.50;5069297;28;20430;-55
2022/06/28 10:11:17;;;;;;;5.88;5.05;;;;;;;32.69;30.36;101182.81;5069426;28;20485;-55
2022/06/28 10:16:45;;;;;;;6.18;5.68;;;;;;;32.69;29.46;101172.63;5068824;28;20401;-56
2022/06/28 10:19:15;;;;;;;6.43;5.68;;;;;;;32.72;28.41;101174.75;5069282;28;20476;-56
2022/06/28 10:22:07;;;;;;;6.47;5.78;;;;;;;32.82;28.34;101167.41;5068826;28;20426;-56
2022/06/28 10:24:53;;;;;;;5.20;4.80;;;;;;;33.08;26.92;101164.88;5068995;28;20815;-55
2022/06/28 10:27:21;;;;;;;6.03;5.45;;;;;;;33.21;27.18;101163.22;5055267;28;20501;-56
2022/06/28 10:30:20;;;;;;;4.30;3.88;;;;;;;33.09;27.08;101166.50;5068807;28;20493;-56
2022/06/28 10:32:48;;;;;;;4.72;4.30;;;;;;;33.15;27.41;101162.53;5069217;28;20414;-58
2022/06/28 10:35:56;;;;;;;5.90;5.30;;;;;;;33.30;28.29;101153.91;5068463;28;20995;-57
2022/06/28 10:38:25;;;;;;;5.88;5.40;;;;;;;33.44;28.44;101153.84;5041825;28;20441;-54
2022/06/28 10:40:52;;;;;;;5.40;5.00;;;;;;;33.44;28.34;101151.09;5068683;28;20413;-56
2022/06/28 10:43:45;;;;;;;4.90;4.50;;;;;;;33.37;28.67;101158.13;5068996;28;20422;-58
2022/06/28 10:46:12;;;;;;;5.20;4.70;;;;;;;33.07;28.89;101152.28;5068705;28;20410;-58
2022/06/28 10:49:08;;;;;;;5.25;4.50;;;;;;;33.25;28.99;101151.28;5071703;28;20440;-57
2022/06/28 10:51:37;;;;;;;5.45;4.70;;;;;;;33.41;29.55;101146.22;5060046;28;20463;-57
2022/06/28 10:54:10;;;;;;;4.65;4.25;;;;;;;33.48;28.86;101148.53;5072711;28;20920;-55
2022/06/28 10:56:42;;;;;;;4.40;4.00;;;;;;;33.40;28.63;101149.28;5072541;28;20992;-55
2022/06/28 10:59:11;;;;;;;4.60;4.20;;;;;;;33.36;28.46;101160.09;5072426;28;20406;-55
2022/06/28 11:01:58;;;;;;;4.43;3.97;;;;;;;33.37;27.99;101142.50;5072129;28;20427;-55
2022/06/28 11:04:30;;;;;;;4.85;4.00;;;;;;;33.64;28.06;101138.75;5072148;28;20498;-58
2022/06/28 11:07:21;;;;;;;5.32;3.92;;;;;;;33.82;28.08;101131.41;5072480;28;20411;-55
2022/06/28 11:10:09;;;;;;;5.05;4.47;;;;;;;33.77;27.88;101128.81;5072258;28;20432;-57
2022/06/28 11:12:38;;;;;;;4.88;4.00;;;;;;;33.61;27.98;101135.81;5072238;28;20407;-58
2022/06/28 11:15:07;;;;;;;4.70;4.37;;;;;;;33.66;27.78;101120.03;5071904;28;20415;-57
2022/06/28 11:17:36;;;;;;;5.07;3.95;;;;;;;33.63;27.60;101128.88;5072187;28;20411;-57
2022/06/28 11:20:05;;;;;;;5.07;4.00;;;;;;;33.65;27.90;101126.63;5071826;28;20916;-58
2022/06/28 11:22:34;;;;;;;4.75;4.07;;;;;;;33.69;28.12;101124.06;5071984;28;20403;-58
2022/06/28 11:25:04;;;;;;;4.57;4.17;;;;;;;33.60;28.17;101121.28;5071814;28;20410;-57
2022/06/28 11:27:31;;;;;;;6.25;4.75;;;;;;;33.61;28.33;101122.88;5071787;28;20410;-57
2022/06/28 11:30:06;;;;;;;5.00;4.60;;;;;;;33.56;28.22;101117.50;5071840;28;20415;-58
2022/06/28 11:32:34;;;;;;;6.40;4.93;;;;;;;33.68;28.92;101125.22;5071830;28;20411;-58
2022/06/28 11:35:04;;;;;;;6.18;4.90;;;;;;;33.69;28.59;101116.66;5071868;28;20885;-58
2022/06/28 11:37:32;;;;;;;5.23;4.80;;;;;;;33.69;28.90;101115.81;5072159;28;20414;-58
2022/06/28 11:40:03;;;;;;;5.00;4.50;;;;;;;33.87;28.74;101116.69;5071766;28;20789;-58
2022/06/28 11:42:30;;;;;;;4.93;4.40;;;;;;;33.81;28.66;101117.97;5057810;28;20513;-59
2022/06/28 11:44:58;;;;;;;5.05;4.65;;;;;;;33.73;28.47;101108.56;5071680;28;20415;-58